Time;durP1;ratioP1;P1;durP2;ratioP2;P2;SDS_P1;SDS_P2;PMS_P1;PMS_P2;Temp;Humidity;BMP_temperature;BMP_pressure;BME280_temperature;BME280_humidity;BME280_pressure;Samples;Min_cycle;Max_cycle;Signal;HPM_P1;HPM_P2
2020/12/09 04:59:22;;;;;;;46.08;25.48;;;2.40;99.90;;;;;;4996539;28;20224;-86
2020/12/09 05:02:01;;;;;;;43.38;27.00;;;2.30;99.90;;;;;;4998559;28;20199;-86
2020/12/09 05:04:31;;;;;;;52.70;27.13;;;2.40;99.90;;;;;;4998799;28;20205;-86
2020/12/09 05:06:58;;;;;;;48.88;27.20;;;2.40;99.90;;;;;;4984780;28;20229;-86
2020/12/09 05:09:27;;;;;;;46.72;26.05;;;2.40;99.90;;;;;;4979462;28;20216;-86
2020/12/09 05:12:03;;;;;;;48.15;27.67;;;2.40;99.90;;;;;;4979348;28;20629;-86
2020/12/09 05:14:32;;;;;;;56.38;31.90;;;2.50;99.90;;;;;;4979602;28;20220;-86
2020/12/09 05:16:59;;;;;;;42.25;27.60;;;2.40;99.90;;;;;;4979341;28;20240;-85
2020/12/09 05:19:26;;;;;;;47.17;28.95;;;2.40;99.90;;;;;;4979108;28;20239;-84
2020/12/09 05:21:54;;;;;;;42.13;26.63;;;2.60;99.90;;;;;;4979910;28;20290;-86
2020/12/09 05:24:20;;;;;;;40.22;24.77;;;2.30;99.90;;;;;;4979337;28;20705;-86
2020/12/09 05:26:47;;;;;;;53.10;27.83;;;2.30;99.90;;;;;;4979643;28;20225;-86
2020/12/09 05:29:16;;;;;;;47.15;26.75;;;2.40;99.90;;;;;;4979606;28;20225;-86
2020/12/09 05:31:44;;;;;;;40.00;25.27;;;2.50;99.90;;;;;;4979145;28;20213;-86
2020/12/09 05:34:26;;;;;;;43.03;24.15;;;2.60;99.90;;;;;;4979166;28;20208;-86
2020/12/09 05:36:53;;;;;;;41.08;25.15;;;2.50;99.90;;;;;;4978752;28;20241;-85
2020/12/09 05:39:20;;;;;;;43.50;23.30;;;2.50;99.90;;;;;;4978833;28;20710;-86
2020/12/09 05:41:46;;;;;;;49.13;28.23;;;2.40;99.90;;;;;;4978922;28;20205;-86
2020/12/09 05:44:12;;;;;;;45.83;25.30;;;2.20;99.90;;;;;;4978744;28;20204;-86
2020/12/09 05:46:57;;;;;;;45.08;26.05;;;2.20;99.90;;;;;;4978488;28;20229;-86
2020/12/09 05:49:25;;;;;;;40.20;22.33;;;2.10;99.90;;;;;;4978602;28;20189;-86
2020/12/09 05:52:09;;;;;;;49.75;27.85;;;2.00;99.90;;;;;;4977854;28;20209;-86
2020/12/09 05:54:37;;;;;;;42.25;23.45;;;1.90;99.90;;;;;;4978446;28;20216;-86
2020/12/09 05:57:05;;;;;;;45.33;25.15;;;1.80;99.90;;;;;;4977995;28;20232;-86
2020/12/09 05:59:32;;;;;;;52.28;27.70;;;1.90;99.90;;;;;;4978165;28;20247;-87
2020/12/09 06:02:07;;;;;;;50.40;26.33;;;2.00;99.90;;;;;;4978327;28;20578;-86
2020/12/09 06:04:47;;;;;;;45.20;27.05;;;2.10;99.90;;;;;;4977882;28;20236;-86
2020/12/09 06:07:15;;;;;;;45.60;25.33;;;2.20;99.90;;;;;;4978364;28;20232;-86
2020/12/09 06:10:00;;;;;;;58.10;29.10;;;2.10;99.90;;;;;;4979121;28;20219;-86
2020/12/09 06:12:26;;;;;;;42.83;24.70;;;2.20;99.90;;;;;;4977746;28;20204;-86
2020/12/09 06:15:12;;;;;;;42.40;23.92;;;2.20;99.90;;;;;;4978204;28;20296;-87
2020/12/09 06:17:39;;;;;;;45.47;24.90;;;2.20;99.90;;;;;;4978066;28;20574;-86
2020/12/09 06:20:05;;;;;;;44.72;23.15;;;2.00;99.90;;;;;;4977645;28;20234;-86
2020/12/09 06:22:32;;;;;;;44.85;27.23;;;2.20;99.90;;;;;;4977535;28;20581;-87
2020/12/09 06:25:02;;;;;;;42.47;23.73;;;2.20;99.90;;;;;;4977324;28;20213;-86
2020/12/09 06:27:31;;;;;;;47.67;24.85;;;2.30;99.90;;;;;;4977317;28;20240;-86
2020/12/09 06:29:57;;;;;;;53.00;25.88;;;2.10;99.90;;;;;;4977153;28;20566;-86
2020/12/09 06:32:23;;;;;;;38.05;23.55;;;2.10;99.90;;;;;;4977193;28;20205;-86
2020/12/09 06:35:05;;;;;;;43.13;25.10;;;3.00;99.90;;;;;;4977890;28;20205;-87
2020/12/09 06:37:31;;;;;;;43.42;25.35;;;2.20;99.90;;;;;;4977424;28;20236;-86
2020/12/09 06:40:07;;;;;;;40.95;23.98;;;2.10;99.90;;;;;;4977072;28;20252;-87
2020/12/09 06:42:34;;;;;;;48.60;23.17;;;2.30;99.90;;;;;;4977865;28;20209;-87
2020/12/09 06:45:01;;;;;;;47.95;23.48;;;2.10;99.90;;;;;;4977800;28;20232;-87
2020/12/09 06:47:28;;;;;;;55.60;27.10;;;2.10;99.90;;;;;;4977970;28;20229;-87
2020/12/09 06:49:55;;;;;;;45.15;27.63;;;2.40;99.90;;;;;;4978115;28;20205;-87
2020/12/09 06:52:35;;;;;;;52.55;29.23;;;2.30;99.90;;;;;;4978030;28;20213;-86
2020/12/09 06:55:06;;;;;;;51.70;28.00;;;2.30;99.90;;;;;;4977660;28;20397;-86
2020/12/09 06:57:38;;;;;;;47.05;25.85;;;2.30;99.90;;;;;;4977751;28;20267;-86
2020/12/09 07:00:19;;;;;;;47.97;26.15;;;2.30;99.90;;;;;;4977792;28;20236;-86
2020/12/09 07:02:47;;;;;;;51.17;28.73;;;2.40;99.90;;;;;;4977534;28;20193;-86
2020/12/09 07:05:15;;;;;;;45.60;28.20;;;2.30;99.90;;;;;;4977313;28;20263;-86
2020/12/09 07:07:44;;;;;;;52.70;26.75;;;2.20;99.90;;;;;;4977249;28;20220;-87
2020/12/09 07:10:18;;;;;;;50.08;24.35;;;2.60;99.90;;;;;;4977509;28;20297;-85
2020/12/09 07:12:45;;;;;;;44.28;24.35;;;2.60;99.90;;;;;;4977282;28;20208;-87
2020/12/09 07:15:12;;;;;;;51.53;27.77;;;2.40;99.90;;;;;;4977068;28;20599;-85
2020/12/09 07:17:44;;;;;;;48.92;26.13;;;2.90;99.90;;;;;;4976709;28;20236;-85
2020/12/09 07:20:10;;;;;;;47.72;26.02;;;2.30;99.90;;;;;;4976622;28;20209;-86
2020/12/09 07:22:39;;;;;;;54.63;26.95;;;2.20;99.90;;;;;;4979037;28;20220;-86
2020/12/09 07:25:09;;;;;;;45.67;25.83;;;2.20;99.90;;;;;;4981079;28;20209;-85
2020/12/09 07:27:37;;;;;;;46.75;28.13;;;2.40;99.90;;;;;;4980436;28;20315;-86
2020/12/09 07:30:07;;;;;;;50.05;27.65;;;2.40;99.90;;;;;;4985948;28;20205;-85
2020/12/09 07:32:36;;;;;;;45.50;26.20;;;2.40;99.90;;;;;;4991226;28;20209;-85
2020/12/09 07:35:05;;;;;;;51.78;29.45;;;2.60;99.90;;;;;;4991729;28;20213;-85
2020/12/09 07:37:35;;;;;;;45.40;26.10;;;2.40;99.90;;;;;;4991065;28;20229;-85
2020/12/09 07:40:10;;;;;;;54.35;27.15;;;2.40;99.90;;;;;;4993683;28;20221;-85
2020/12/09 07:42:36;;;;;;;45.92;26.85;;;2.30;99.90;;;;;;4995554;28;20217;-85
2020/12/09 07:45:10;;;;;;;54.78;29.17;;;2.30;99.90;;;;;;4996693;28;20215;-85
2020/12/09 07:47:36;;;;;;;44.75;25.10;;;2.40;99.90;;;;;;4986114;28;20226;-84
2020/12/09 07:50:05;;;;;;;43.90;28.40;;;2.30;99.90;;;;;;4989904;28;20205;-84
2020/12/09 07:52:33;;;;;;;45.22;25.48;;;2.10;99.90;;;;;;4992098;28;20209;-85
2020/12/09 07:55:02;;;;;;;49.70;27.48;;;2.40;99.90;;;;;;4987755;28;20216;-85
2020/12/09 07:57:32;;;;;;;47.72;27.90;;;2.20;99.90;;;;;;4986808;28;20229;-85
2020/12/09 07:59:59;;;;;;;59.42;28.88;;;3.00;99.90;;;;;;4983135;28;20228;-84
2020/12/09 08:02:27;;;;;;;54.92;29.20;;;2.40;99.90;;;;;;4982647;28;20216;-85
2020/12/09 08:05:15;;;;;;;48.55;27.60;;;2.30;99.90;;;;;;4982584;28;20205;-86
2020/12/09 08:07:54;;;;;;;52.55;28.92;;;2.40;99.90;;;;;;4978451;28;20838;-85
2020/12/09 08:10:29;;;;;;;57.13;30.17;;;2.40;99.90;;;;;;5001211;28;20204;-85
2020/12/09 08:13:05;;;;;;;44.80;25.98;;;3.50;99.90;;;;;;4988264;28;20212;-86
2020/12/09 08:15:31;;;;;;;52.72;26.02;;;2.10;99.90;;;;;;4985144;28;20193;-85
2020/12/09 08:17:59;;;;;;;42.65;24.02;;;2.30;99.90;;;;;;4987730;28;20205;-85
2020/12/09 08:20:25;;;;;;;42.15;25.27;;;3.40;99.90;;;;;;4988737;28;20236;-86
2020/12/09 08:22:53;;;;;;;40.60;25.85;;;2.50;99.90;;;;;;4984267;28;20212;-86
2020/12/09 08:25:19;;;;;;;52.22;28.33;;;2.00;99.90;;;;;;4996444;28;20588;-85
2020/12/09 08:27:47;;;;;;;47.78;26.45;;;2.10;99.90;;;;;;4996273;28;20213;-86
2020/12/09 08:30:22;;;;;;;44.40;27.05;;;2.50;99.90;;;;;;4995327;28;20201;-86
2020/12/09 08:32:57;;;;;;;51.63;25.60;;;2.30;99.90;;;;;;4990468;28;20213;-85
2020/12/09 08:35:23;;;;;;;40.22;25.60;;;2.50;99.90;;;;;;4992037;28;20286;-85
2020/12/09 08:37:49;;;;;;;39.22;24.60;;;2.80;99.90;;;;;;4988370;28;20717;-86
2020/12/09 08:40:16;;;;;;;38.90;24.88;;;2.80;99.90;;;;;;4982996;28;20216;-86
2020/12/09 08:42:51;;;;;;;46.92;25.42;;;3.30;99.90;;;;;;4984846;28;20232;-86
2020/12/09 08:45:18;;;;;;;44.88;26.45;;;2.90;99.90;;;;;;4998141;28;20195;-85
2020/12/09 08:47:44;;;;;;;37.70;22.60;;;2.70;99.90;;;;;;5004400;28;20219;-85
2020/12/09 08:50:11;;;;;;;56.25;28.35;;;2.70;99.90;;;;;;5006182;28;20205;-85
2020/12/09 08:52:37;;;;;;;48.85;28.95;;;3.60;99.90;;;;;;4996657;28;20216;-86
2020/12/09 08:55:04;;;;;;;45.20;27.65;;;2.80;99.90;;;;;;5000355;28;20201;-86
2020/12/09 08:57:30;;;;;;;48.95;26.10;;;2.70;99.90;;;;;;4978965;28;20239;-85
2020/12/09 08:59:56;;;;;;;46.97;28.85;;;2.80;99.90;;;;;;4964556;28;20214;-85
2020/12/09 09:02:24;;;;;;;50.35;25.85;;;2.90;99.90;;;;;;4964081;28;20232;-85
2020/12/09 09:04:53;;;;;;;47.20;25.40;;;2.90;99.90;;;;;;4974583;28;20288;-86
2020/12/09 09:07:20;;;;;;;49.10;27.30;;;3.00;99.90;;;;;;5003464;28;20241;-85
2020/12/09 09:09:46;;;;;;;48.30;25.23;;;2.80;99.90;;;;;;5005640;28;20669;-86
2020/12/09 09:12:12;;;;;;;41.00;26.17;;;2.50;99.90;;;;;;5004265;28;20266;-87
2020/12/09 09:14:39;;;;;;;46.13;27.33;;;2.60;99.90;;;;;;5000799;28;20295;-86
2020/12/09 09:17:06;;;;;;;48.72;27.35;;;3.50;99.90;;;;;;5003504;28;20303;-86
2020/12/09 09:19:33;;;;;;;47.60;27.58;;;2.00;99.90;;;;;;5001062;28;20250;-85
2020/12/09 09:22:19;;;;;;;51.03;27.13;;;;;;;;;;4999921;28;20299;-86
2020/12/09 09:28:08;;;;;;;47.25;29.80;;;2.50;99.90;;;;;;4992475;28;20233;-86
2020/12/09 09:31:05;;;;;;;41.90;26.05;;;2.60;99.90;;;;;;5000134;28;20239;-86
2020/12/09 09:33:31;;;;;;;49.15;28.30;;;2.60;99.90;;;;;;5000537;28;20210;-86
2020/12/09 09:35:58;;;;;;;49.20;27.95;;;2.50;99.90;;;;;;5003161;28;20234;-85
2020/12/09 09:38:25;;;;;;;51.60;27.67;;;2.50;99.90;;;;;;4999075;28;20216;-86
2020/12/09 09:40:58;;;;;;;62.88;30.45;;;2.60;99.90;;;;;;5000493;28;20664;-86
2020/12/09 09:43:25;;;;;;;57.63;28.98;;;2.60;99.90;;;;;;4982185;28;20260;-85
2020/12/09 09:45:57;;;;;;;53.15;29.30;;;2.70;99.90;;;;;;4983363;28;20237;-86
2020/12/09 09:48:27;;;;;;;50.53;28.40;;;2.80;99.90;;;;;;4984002;28;20253;-85
2020/12/09 09:57:36;;;;;;;;;;;;;;;;;;;;;
2020/12/09 10:00:31;;;;;;;46.28;26.70;;;3.10;99.90;;;;;;4980836;28;20339;-84
2020/12/09 10:03:19;;;;;;;43.92;26.38;;;3.00;99.90;;;;;;4983638;28;20213;-84
2020/12/09 15:45:38;;;;;;;;;;;;;;;;;;;;;
2020/12/09 15:51:33;;;;;;;30.88;20.25;;;3.10;99.90;;;;;;4791927;29;20233;-84
2020/12/09 15:57:37;;;;;;;30.90;19.65;;;2.80;99.90;;;;;;4929690;28;20232;-83
2020/12/09 16:00:13;;;;;;;33.80;19.48;;;4.90;99.90;;;;;;4965104;28;20224;-83
2020/12/09 16:02:42;;;;;;;36.35;24.48;;;3.80;99.90;;;;;;4984547;28;20245;-83
2020/12/09 16:05:09;;;;;;;31.90;19.63;;;2.80;99.90;;;;;;4982154;28;20249;-83
2020/12/09 16:07:39;;;;;;;30.15;18.80;;;3.00;99.90;;;;;;4981880;28;20240;-83
2020/12/09 16:10:06;;;;;;;32.30;21.67;;;2.80;99.90;;;;;;4981840;28;20217;-83
2020/12/09 16:12:40;;;;;;;36.55;24.15;;;2.80;99.90;;;;;;4981722;28;20209;-84
2020/12/09 16:15:08;;;;;;;30.30;19.13;;;4.40;99.90;;;;;;4981506;28;20260;-83
2020/12/09 16:17:36;;;;;;;27.98;19.48;;;2.80;99.90;;;;;;4980529;28;20319;-83
2020/12/09 16:20:05;;;;;;;35.80;20.52;;;2.70;99.90;;;;;;4982708;28;20248;-84
2020/12/09 16:22:32;;;;;;;36.28;21.38;;;2.70;99.90;;;;;;4983786;28;20296;-83
2020/12/09 16:24:59;;;;;;;38.92;25.65;;;2.60;99.90;;;;;;4983240;28;20213;-83
2020/12/09 16:27:25;;;;;;;31.85;21.38;;;2.50;99.90;;;;;;4982761;28;20232;-81
2020/12/09 16:29:53;;;;;;;36.92;22.23;;;2.50;99.90;;;;;;4994741;28;20204;-85
2020/12/09 17:39:37;;;;;;;25.00;15.70;;;3.60;99.90;;;;;;4821017;29;20278;-85
2020/12/09 17:42:03;;;;;;;23.17;15.30;;;2.90;99.90;;;;;;4951088;28;20208;-84
2020/12/09 17:44:33;;;;;;;22.33;15.75;;;2.90;99.90;;;;;;5001824;28;20682;-85
2020/12/09 17:47:00;;;;;;;21.25;16.05;;;2.90;99.90;;;;;;5003223;28;20225;-84
2020/12/09 17:49:26;;;;;;;24.02;18.02;;;2.90;99.90;;;;;;5001380;28;20556;-85
2020/12/09 17:51:56;;;;;;;17.40;14.90;;;3.00;99.90;;;;;;5003463;28;20205;-85
2020/12/09 17:54:22;;;;;;;29.45;17.80;;;3.00;99.90;;;;;;4985931;28;20211;-83
2020/12/09 17:56:49;;;;;;;20.55;16.05;;;3.00;99.90;;;;;;4980341;28;20221;-81
2020/12/09 17:59:16;;;;;;;22.38;15.48;;;3.10;99.90;;;;;;4984001;28;20213;-83
2020/12/09 18:01:42;;;;;;;27.38;16.90;;;3.10;99.90;;;;;;4982363;28;20209;-84
2020/12/09 18:04:08;;;;;;;24.38;17.80;;;2.90;99.90;;;;;;4983480;28;20303;-84
2020/12/09 18:06:39;;;;;;;29.45;17.20;;;2.70;99.90;;;;;;4995675;28;20250;-85
2020/12/09 18:09:06;;;;;;;32.40;17.17;;;2.50;99.90;;;;;;5003249;28;20216;-84
2020/12/09 18:11:33;;;;;;;27.65;18.20;;;2.40;99.90;;;;;;5002500;28;20212;-84
2020/12/09 18:14:00;;;;;;;30.80;21.67;;;2.30;99.90;;;;;;5002497;28;20217;-84
2020/12/09 18:16:27;;;;;;;28.95;16.70;;;2.30;99.90;;;;;;4982643;28;20229;-85
2020/12/09 18:18:54;;;;;;;30.23;20.88;;;2.20;99.90;;;;;;4982772;28;20223;-85
2020/12/09 18:21:20;;;;;;;30.02;20.25;;;2.20;99.90;;;;;;4980813;28;20236;-84
2020/12/09 18:23:47;;;;;;;31.10;17.45;;;2.10;99.90;;;;;;4984005;28;20211;-85
2020/12/09 18:26:19;;;;;;;30.90;20.73;;;2.10;99.90;;;;;;4982236;28;20251;-84
2020/12/09 18:38:50;;;;;;;29.58;17.73;;;2.70;99.90;;;;;;4770756;29;20224;-81
2020/12/09 18:41:16;;;;;;;34.65;19.15;;;2.30;99.90;;;;;;4946505;28;20233;-81
2020/12/09 18:43:43;;;;;;;38.20;22.58;;;2.20;99.90;;;;;;4978884;28;20221;-81
2020/12/09 18:46:09;;;;;;;37.20;20.40;;;2.20;99.90;;;;;;4996023;28;20234;-81
2020/12/09 18:48:35;;;;;;;26.17;19.20;;;2.10;99.90;;;;;;4999334;28;20332;-81
2020/12/09 18:51:02;;;;;;;28.63;17.63;;;2.20;99.90;;;;;;4995807;28;20209;-81
2020/12/09 18:53:28;;;;;;;31.15;21.83;;;2.10;99.90;;;;;;4995358;28;20220;-81
2020/12/09 18:56:06;;;;;;;33.47;21.70;;;2.10;99.90;;;;;;4996366;28;20286;-81
2020/12/09 18:58:41;;;;;;;26.38;19.85;;;2.10;99.90;;;;;;4996105;28;20684;-81
2020/12/09 19:01:07;;;;;;;31.80;19.05;;;2.10;99.90;;;;;;4997793;28;20224;-80
2020/12/09 19:03:36;;;;;;;35.53;20.15;;;1.90;99.90;;;;;;4996126;28;20236;-81
2020/12/09 19:06:09;;;;;;;33.20;18.42;;;3.60;99.90;;;;;;4996692;28;20263;-80
2020/12/09 19:08:37;;;;;;;26.25;19.40;;;2.30;99.90;;;;;;4997661;28;20276;-81
2020/12/09 19:11:04;;;;;;;35.80;18.17;;;2.10;99.90;;;;;;4998374;28;20219;-81
2020/12/09 19:13:32;;;;;;;34.33;19.65;;;2.00;99.90;;;;;;4997802;28;20208;-80
2020/12/09 19:15:59;;;;;;;32.25;19.25;;;2.70;99.90;;;;;;4977775;28;20218;-83
2020/12/09 19:18:26;;;;;;;27.02;19.88;;;2.50;99.90;;;;;;4971017;28;20209;-81
2020/12/09 19:20:52;;;;;;;30.33;20.13;;;2.00;99.90;;;;;;4972633;28;20624;-81
2020/12/09 19:23:18;;;;;;;30.13;20.75;;;2.00;99.90;;;;;;4969086;28;20221;-81
2020/12/09 19:25:45;;;;;;;39.92;21.48;;;2.10;99.90;;;;;;4971177;28;20221;-81
2020/12/09 19:28:22;;;;;;;33.53;22.20;;;2.20;99.90;;;;;;4969211;28;20205;-83
2020/12/09 19:31:02;;;;;;;32.50;22.33;;;2.20;99.90;;;;;;4969635;28;20198;-82
2020/12/09 19:33:33;;;;;;;30.77;20.25;;;2.20;99.90;;;;;;4966643;28;20205;-82
2020/12/09 19:36:06;;;;;;;33.35;19.80;;;2.30;99.90;;;;;;4969005;28;20595;-82
2020/12/09 19:38:58;;;;;;;;;;;;;;;;;;;;;
2020/12/09 19:41:41;;;;;;;;;;;;;;;;;;;;;
2020/12/09 19:44:26;;;;;;;;;;;;;;;;;;;;;
2020/12/09 19:47:38;;;;;;;;;;;;;;;;;;;;;
